Time;durP1;ratioP1;P1;durP2;ratioP2;P2;SDS_P1;SDS_P2;PMS_P1;PMS_P2;Temp;Humidity;BMP_temperature;BMP_pressure;BME280_temperature;BME280_humidity;BME280_pressure;Samples;Min_cycle;Max_cycle;Signal;HPM_P1;HPM_P2
2023/01/29 00:01:24;;;;;;;32.73;18.33;;;;;;;-145.18;100.00;46660.41;6273857;22;20225;-73
2023/01/29 00:03:50;;;;;;;33.63;17.83;;;;;;;-145.18;100.00;46658.44;6273563;22;20091;-73
2023/01/29 00:06:16;;;;;;;35.07;18.43;;;;;;;-145.18;100.00;46656.50;6273682;22;20031;-73
2023/01/29 00:08:41;;;;;;;41.37;20.37;;;;;;;-145.18;100.00;46658.44;6274337;22;20312;-73
2023/01/29 00:11:08;;;;;;;34.27;17.40;;;;;;;-145.18;100.00;46660.41;6273555;22;20350;-73
2023/01/29 00:13:33;;;;;;;32.03;17.30;;;;;;;-145.18;100.00;46660.41;6273963;22;20019;-73
2023/01/29 00:16:00;;;;;;;37.07;19.43;;;;;;;-145.18;100.00;46660.41;6273632;22;20808;-74
2023/01/29 00:18:26;;;;;;;36.57;19.40;;;;;;;-145.18;100.00;46660.41;6273855;22;20000;-73
2023/01/29 00:20:52;;;;;;;38.40;18.60;;;;;;;-145.18;100.00;46660.41;6245922;22;20297;-73
2023/01/29 00:23:18;;;;;;;34.43;18.40;;;;;;;-145.18;100.00;46660.41;6273859;22;20288;-73
2023/01/29 00:25:44;;;;;;;34.27;18.97;;;;;;;-145.18;100.00;46660.41;6273908;22;20008;-73
2023/01/29 00:28:10;;;;;;;37.53;18.43;;;;;;;-145.18;100.00;46660.41;6273779;22;20007;-73
2023/01/29 00:30:36;;;;;;;34.47;18.73;;;;;;;-145.18;100.00;46660.41;6273680;22;20704;-73
2023/01/29 00:33:02;;;;;;;35.40;18.70;;;;;;;-145.18;100.00;46642.81;6273372;22;20015;-73
2023/01/29 00:35:27;;;;;;;35.13;18.67;;;;;;;-145.18;100.00;46660.41;6274295;22;20229;-73
2023/01/29 00:37:57;;;;;;;31.87;17.57;;;;;;;-145.18;100.00;46660.41;6273420;22;20539;-73
2023/01/29 00:40:24;;;;;;;30.37;16.60;;;;;;;-145.18;100.00;46660.41;6273785;22;20076;-73
2023/01/29 00:45:35;;;;;;;32.20;18.63;;;;;;;-145.18;100.00;46679.94;6273612;22;20684;-73
2023/01/29 00:48:01;;;;;;;32.67;17.43;;;;;;;-145.18;100.00;46679.94;6246218;22;20236;-73
2023/01/29 00:50:26;;;;;;;33.63;17.57;;;;;;;-145.18;100.00;46646.72;6273558;22;20544;-73
2023/01/29 00:52:53;;;;;;;34.10;18.60;;;;;;;-145.18;100.00;46646.72;6273168;22;20237;-73
2023/01/29 00:55:19;;;;;;;34.70;18.07;;;;;;;-145.18;100.00;46654.53;6273653;22;20495;-73
2023/01/29 00:57:44;;;;;;;35.27;18.03;;;;;;;-145.18;100.00;46646.72;6246344;22;20245;-73
2023/01/29 01:00:13;;;;;;;34.20;18.20;;;;;;;-145.18;100.00;46642.81;6273322;22;20302;-73
2023/01/29 01:05:22;;;;;;;35.83;18.90;;;;;;;-145.18;100.00;46644.78;6273545;22;20248;-73
2023/01/29 01:07:50;;;;;;;35.10;18.17;;;;;;;-145.18;100.00;46642.81;6273200;22;20216;-73
2023/01/29 01:10:20;;;;;;;35.07;19.40;;;;;;;-145.18;100.00;46642.81;6273303;22;20000;-73
2023/01/29 01:12:57;;;;;;;34.53;19.20;;;;;;;-145.18;100.00;46648.69;6273537;22;20221;-73
2023/01/29 01:15:24;;;;;;;37.77;20.83;;;;;;;-145.18;100.00;46646.72;6273761;22;20228;-73
2023/01/29 01:17:55;;;;;;;37.53;21.03;;;;;;;-145.18;100.00;46679.94;6273267;22;20302;-73
2023/01/29 01:20:22;;;;;;;34.07;19.30;;;;;;;-145.18;100.00;46679.94;6273370;22;20236;-73
2023/01/29 01:22:48;;;;;;;34.37;18.93;;;;;;;-145.18;100.00;46679.94;6272960;22;20255;-73
2023/01/29 01:25:14;;;;;;;33.00;19.07;;;;;;;-145.18;100.00;46677.97;6246027;22;20225;-73
2023/01/29 01:27:40;;;;;;;40.73;21.90;;;;;;;-145.18;100.00;46646.72;6273243;22;20019;-73
2023/01/29 01:30:11;;;;;;;34.73;19.77;;;;;;;-145.18;100.00;46646.72;6273315;22;20669;-73
2023/01/29 01:32:36;;;;;;;36.30;19.40;;;;;;;-145.18;100.00;46652.59;6273078;22;20083;-73
2023/01/29 01:35:02;;;;;;;38.27;20.10;;;;;;;-145.18;100.00;46650.63;6273234;22;20245;-73
2023/01/29 01:37:28;;;;;;;39.57;21.53;;;;;;;-145.18;100.00;46652.59;6273242;22;20008;-73
2023/01/29 01:39:56;;;;;;;39.30;21.57;;;;;;;-145.18;100.00;46664.31;6273252;22;20022;-73
2023/01/29 01:42:28;;;;;;;36.20;19.60;;;;;;;-145.18;100.00;46664.31;6273108;22;20654;-72
2023/01/29 01:45:06;;;;;;;40.20;19.40;;;;;;;-145.18;100.00;46660.41;6272808;22;20236;-73
2023/01/29 01:47:43;;;;;;;35.33;19.90;;;;;;;-145.18;100.00;46664.31;6272542;22;20213;-73
2023/01/29 01:50:20;;;;;;;34.37;20.23;;;;;;;-145.18;100.00;46656.50;6273481;22;20532;-73
2023/01/29 01:52:50;;;;;;;41.57;21.43;;;;;;;-145.18;100.00;46654.53;6273268;22;20225;-73
2023/01/29 01:55:20;;;;;;;38.03;20.10;;;;;;;-145.18;100.00;46648.69;6273660;22;20604;-73
2023/01/29 01:57:49;;;;;;;37.17;20.37;;;;;;;-145.18;100.00;46642.81;6272927;22;20559;-73
2023/01/29 02:00:17;;;;;;;35.60;19.93;;;;;;;-145.18;100.00;46677.97;6272923;22;20658;-73
2023/01/29 02:11:07;;;;;;;40.90;21.40;;;;;;;-145.18;100.00;46660.41;6272196;22;20752;-73
2023/01/29 02:13:33;;;;;;;38.00;20.83;;;;;;;-145.18;100.00;46658.44;6272819;22;20226;-73
2023/01/29 02:15:58;;;;;;;33.30;19.70;;;;;;;-145.18;100.00;46656.50;6273038;22;20008;-73
2023/01/29 02:18:24;;;;;;;38.90;20.13;;;;;;;-145.18;100.00;46660.41;6272725;22;20376;-73
2023/01/29 02:21:27;;;;;;;35.30;19.97;;;;;;;-145.18;100.00;46660.41;6272969;22;20018;-73
2023/01/29 02:24:14;;;;;;;39.17;21.17;;;;;;;-145.18;100.00;46654.53;6216802;22;20083;-73
2023/01/29 02:26:57;;;;;;;;;;;;;;;-145.18;100.00;46656.50;6273393;22;20235;-73
2023/01/29 02:29:48;;;;;;;38.43;19.80;;;;;;;-145.18;100.00;46654.53;6273192;22;19907;-73
2023/01/29 02:32:19;;;;;;;40.20;21.63;;;;;;;-145.18;100.00;46656.50;6255026;22;20333;-73
2023/01/29 02:37:57;;;;;;;38.07;20.97;;;;;;;-145.18;100.00;46660.41;6272891;22;20582;-73
2023/01/29 02:40:36;;;;;;;39.70;20.40;;;;;;;-145.18;100.00;46660.41;6273136;22;20745;-73
2023/01/29 02:43:14;;;;;;;37.33;20.57;;;;;;;-145.18;100.00;46660.41;6273234;22;20252;-73
2023/01/29 02:45:55;;;;;;;38.60;21.27;;;;;;;-145.18;100.00;46660.41;6274725;22;20253;-73
2023/01/29 02:48:23;;;;;;;39.15;21.08;;;;;;;-145.18;100.00;46660.41;6274740;22;20250;-73
2023/01/29 02:51:00;;;;;;;39.03;21.27;;;;;;;-145.18;100.00;46660.41;6274991;22;20003;-73
2023/01/29 02:53:53;;;;;;;37.43;20.63;;;;;;;-145.18;100.00;46660.41;6274240;22;20228;-73
2023/01/29 02:56:30;;;;;;;39.80;19.70;;;;;;;-145.18;100.00;46660.41;6274228;22;20221;-72
2023/01/29 02:59:06;;;;;;;39.85;20.30;;;;;;;-145.18;100.00;46660.41;6247713;22;20217;-73
2023/01/29 03:01:51;;;;;;;37.75;20.58;;;;;;;-145.18;100.00;46660.41;6254041;22;20142;-72
2023/01/29 03:04:25;;;;;;;45.40;22.15;;;;;;;-145.18;100.00;46660.41;6242715;23;20340;-72
2023/01/29 03:06:57;;;;;;;43.53;21.47;;;;;;;-145.18;100.00;46660.41;6242787;23;20008;-71
2023/01/29 03:09:22;;;;;;;37.30;20.27;;;;;;;-145.18;100.00;46660.41;6217218;23;20237;-72
2023/01/29 03:11:53;;;;;;;38.97;20.97;;;;;;;-145.18;100.00;46660.41;6243459;23;20000;-72
2023/01/29 03:17:25;;;;;;;37.63;20.48;;;;;;;-145.18;100.00;46679.94;6243992;23;20511;-72
2023/01/29 03:19:50;;;;;;;39.50;19.45;;;;;;;-145.18;100.00;46642.81;6244131;23;20099;-72
2023/01/29 03:22:20;;;;;;;41.63;21.87;;;;;;;-145.18;100.00;46652.59;6243714;23;20441;-72
2023/01/29 03:33:25;;;;;;;39.92;20.50;;;;;;;-145.18;100.00;46677.97;6244073;23;20018;-72
2023/01/29 03:35:59;;;;;;;35.30;20.20;;;;;;;-145.18;100.00;46681.88;6243835;23;20004;-72
2023/01/29 03:38:28;;;;;;;42.75;21.95;;;;;;;-145.18;100.00;46683.84;6243524;23;20004;-72
2023/01/29 03:41:31;;;;;;;43.83;20.83;;;;;;;-145.18;100.00;46691.66;6243768;23;20005;-72
2023/01/29 03:43:56;;;;;;;39.08;21.23;;;;;;;-145.18;100.00;46677.97;6230894;23;20016;-72
2023/01/29 03:46:31;;;;;;;39.57;20.73;;;;;;;-145.18;100.00;46674.06;6243799;23;20058;-72
2023/01/29 03:49:26;;;;;;;36.13;20.30;;;;;;;-145.18;100.00;46670.16;6243388;23;20335;-72
2023/01/29 03:52:24;;;;;;;40.35;20.67;;;;;;;-145.18;100.00;46664.31;6243478;23;20020;-72
2023/01/29 03:55:05;;;;;;;37.13;19.60;;;;;;;-145.18;100.00;46658.44;6215105;23;20416;-72
2023/01/29 03:57:39;;;;;;;38.78;19.98;;;;;;;-145.18;100.00;46652.59;6243587;23;20230;-72
2023/01/29 04:00:16;;;;;;;36.38;19.60;;;;;;;-145.18;100.00;46652.59;6244022;23;20007;-71
2023/01/29 04:03:11;;;;;;;40.33;21.75;;;;;;;-145.18;100.00;46654.53;6242716;23;20352;-72
2023/01/29 04:05:51;;;;;;;39.13;20.73;;;;;;;-145.18;100.00;46656.50;6237793;23;20004;-72
2023/01/29 04:08:26;;;;;;;40.47;20.58;;;;;;;-145.18;100.00;46642.81;6243394;23;20010;-72
2023/01/29 04:10:57;;;;;;;37.20;19.77;;;;;;;-145.18;100.00;46640.88;6243489;23;20499;-71
2023/01/29 04:13:24;;;;;;;36.97;20.83;;;;;;;-145.18;100.00;46679.94;6216269;23;20086;-72
2023/01/29 04:15:55;;;;;;;34.65;19.88;;;;;;;-145.18;100.00;46660.41;6243066;23;20092;-72
2023/01/29 04:18:20;;;;;;;39.33;19.58;;;;;;;-145.18;100.00;46660.41;6239893;23;20011;-72
2023/01/29 04:20:46;;;;;;;34.93;19.20;;;;;;;-145.18;100.00;46660.41;6242696;23;20008;-72
2023/01/29 04:23:23;;;;;;;37.57;20.00;;;;;;;-145.18;100.00;46656.50;6242974;23;20089;-72
2023/01/29 04:26:06;;;;;;;36.20;20.40;;;;;;;-145.18;100.00;46654.53;6242866;23;20027;-72
2023/01/29 04:29:16;;;;;;;38.05;21.05;;;;;;;-145.18;100.00;46656.50;6242757;23;20008;-71
2023/01/29 04:31:48;;;;;;;36.35;20.63;;;;;;;-145.18;100.00;46660.41;6242503;23;20004;-72
2023/01/29 04:34:22;;;;;;;39.55;20.95;;;;;;;-145.18;100.00;46660.41;6242878;23;20032;-72
2023/01/29 04:37:18;;;;;;;38.67;20.67;;;;;;;-145.18;100.00;46658.44;6242565;23;20439;-72
2023/01/29 04:39:55;;;;;;;35.80;19.40;;;;;;;-145.18;100.00;46660.41;6243040;23;20031;-71
2023/01/29 04:42:48;;;;;;;35.35;19.85;;;;;;;-145.18;100.00;46654.53;6242700;23;20004;-71
2023/01/29 04:45:14;;;;;;;36.85;19.00;;;;;;;-145.18;100.00;46660.41;6242785;23;20333;-71
2023/01/29 04:47:54;;;;;;;37.40;20.73;;;;;;;-145.18;100.00;46660.41;6242105;23;20000;-71
2023/01/29 04:50:29;;;;;;;35.85;20.27;;;;;;;-145.18;100.00;46660.41;6243006;23;20390;-72
2023/01/29 04:53:06;;;;;;;33.58;19.95;;;;;;;-145.18;100.00;46660.41;6242592;23;20035;-72
2023/01/29 04:55:37;;;;;;;35.58;20.88;;;;;;;-145.18;100.00;46660.41;6242646;23;20019;-72
2023/01/29 04:58:17;;;;;;;34.75;19.77;;;;;;;-145.18;100.00;46658.44;6216108;23;20004;-72
2023/01/29 05:00:47;;;;;;;37.53;21.08;;;;;;;-145.18;100.00;46654.53;6242662;23;20083;-72
2023/01/29 05:03:14;;;;;;;36.25;21.05;;;;;;;-145.18;100.00;46658.44;6242225;23;20016;-72
2023/01/29 05:05:44;;;;;;;40.25;21.23;;;;;;;-145.18;100.00;46656.50;6242298;23;20008;-72
2023/01/29 05:08:12;;;;;;;35.35;21.02;;;;;;;-145.18;100.00;46654.53;6242563;23;20004;-71
2023/01/29 05:10:38;;;;;;;37.87;20.93;;;;;;;-145.18;100.00;46660.41;6242774;23;20070;-72
2023/01/29 05:13:07;;;;;;;41.43;22.50;;;;;;;-145.18;100.00;46654.53;6242246;23;20234;-71
2023/01/29 05:15:39;;;;;;;42.50;22.73;;;;;;;-145.18;100.00;46656.50;6242540;23;20095;-72
2023/01/29 05:18:07;;;;;;;36.97;21.40;;;;;;;-145.18;100.00;46654.53;6242547;23;20004;-72
2023/01/29 05:20:36;;;;;;;40.22;21.77;;;;;;;-145.18;100.00;46658.44;6242509;23;20678;-72
2023/01/29 05:23:01;;;;;;;39.83;22.73;;;;;;;-145.18;100.00;46656.50;6241871;23;20012;-72
2023/01/29 05:25:29;;;;;;;41.60;22.87;;;;;;;-145.18;100.00;46658.44;6240421;23;20050;-71
2023/01/29 05:28:05;;;;;;;41.33;21.40;;;;;;;-145.18;100.00;46656.50;6242219;23;20524;-71
2023/01/29 05:30:35;;;;;;;39.38;21.67;;;;;;;-145.18;100.00;46656.50;6242519;23;20233;-71
2023/01/29 05:33:02;;;;;;;41.75;22.60;;;;;;;-145.18;100.00;46654.53;6242112;23;20107;-71
2023/01/29 05:35:28;;;;;;;39.30;21.67;;;;;;;-145.18;100.00;46660.41;6242205;23;20004;-71
2023/01/29 05:37:56;;;;;;;39.73;21.53;;;;;;;-145.18;100.00;46654.53;6242065;23;20014;-71
2023/01/29 05:40:23;;;;;;;37.30;21.92;;;;;;;-145.18;100.00;46660.41;6215834;23;20468;-71
2023/01/29 05:42:49;;;;;;;36.57;21.33;;;;;;;-145.18;100.00;46660.41;6241875;23;20036;-71
2023/01/29 05:45:16;;;;;;;38.23;21.17;;;;;;;-145.18;100.00;46660.41;6242320;23;20234;-71
2023/01/29 05:47:41;;;;;;;34.57;20.53;;;;;;;-145.18;100.00;46660.41;6242089;23;20318;-71
2023/01/29 05:50:07;;;;;;;40.90;22.07;;;;;;;-145.18;100.00;46660.41;6215737;23;20284;-71
2023/01/29 05:52:33;;;;;;;37.67;22.43;;;;;;;-145.18;100.00;46660.41;6241207;23;20018;-71
2023/01/29 05:54:58;;;;;;;39.60;22.23;;;;;;;-145.18;100.00;46660.41;6213824;23;20230;-71
2023/01/29 05:57:23;;;;;;;37.70;21.13;;;;;;;-145.18;100.00;46635.00;6242028;23;20087;-71
2023/01/29 05:59:49;;;;;;;38.60;22.93;;;;;;;-145.18;100.00;46660.41;6241944;23;20012;-71
2023/01/29 06:02:14;;;;;;;38.67;21.87;;;;;;;-145.18;100.00;46660.41;6214762;23;20016;-71
2023/01/29 06:04:39;;;;;;;37.77;21.30;;;;;;;-145.18;100.00;46636.94;6242337;23;20601;-71
2023/01/29 06:07:05;;;;;;;34.33;20.83;;;;;;;-145.18;100.00;46638.91;6215616;23;20008;-71
2023/01/29 06:09:30;;;;;;;31.93;15.73;;;;;;;-145.18;100.00;46638.91;6242522;23;20039;-71
2023/01/29 06:11:56;;;;;;;36.37;20.00;;;;;;;-145.18;100.00;46640.88;6242369;23;20457;-71
2023/01/29 06:14:21;;;;;;;35.83;21.37;;;;;;;-145.18;100.00;46644.78;6242317;23;20008;-71
2023/01/29 06:16:46;;;;;;;35.47;20.83;;;;;;;-145.18;100.00;46640.88;6241716;23;20374;-71
2023/01/29 06:19:12;;;;;;;34.80;20.03;;;;;;;-145.18;100.00;46638.91;6242428;23;20377;-71
2023/01/29 06:21:37;;;;;;;36.50;19.73;;;;;;;-145.18;100.00;46633.06;6242396;23;20066;-71
2023/01/29 06:24:03;;;;;;;36.37;19.83;;;;;;;-145.18;100.00;46638.91;6215653;23;20012;-72
2023/01/29 06:26:28;;;;;;;38.03;20.30;;;;;;;-145.18;100.00;46660.41;6242479;23;20091;-71
2023/01/29 06:28:54;;;;;;;37.33;20.97;;;;;;;-145.18;100.00;46660.41;6241872;23;20016;-71
2023/01/29 06:31:19;;;;;;;43.40;23.50;;;;;;;-145.18;100.00;46660.41;6242525;23;20418;-71
2023/01/29 06:33:44;;;;;;;39.27;21.83;;;;;;;-145.18;100.00;46660.41;6241658;23;20015;-72
2023/01/29 06:36:10;;;;;;;42.77;22.90;;;;;;;-145.18;100.00;46660.41;6242828;23;20012;-71
2023/01/29 06:38:35;;;;;;;38.50;23.43;;;;;;;-145.18;100.00;46660.41;6241953;23;20007;-71
2023/01/29 06:41:09;;;;;;;42.30;23.43;;;;;;;-145.18;100.00;46660.41;6242053;23;20015;-71
2023/01/29 06:43:35;;;;;;;42.67;24.50;;;;;;;-145.18;100.00;46660.41;6241499;23;20034;-71
2023/01/29 06:46:00;;;;;;;46.80;24.30;;;;;;;-145.18;100.00;46660.41;6242338;23;20012;-71
2023/01/29 06:48:26;;;;;;;40.80;23.30;;;;;;;-145.18;100.00;46660.41;6215379;23;20083;-71
2023/01/29 06:50:53;;;;;;;43.73;24.03;;;;;;;-145.18;100.00;46660.41;6242230;23;20015;-71
2023/01/29 06:53:20;;;;;;;41.60;24.05;;;;;;;-145.18;100.00;46660.41;6241908;23;20012;-72
2023/01/29 06:55:52;;;;;;;45.13;24.93;;;;;;;-145.18;100.00;46660.41;6215458;23;20079;-71
2023/01/29 06:58:17;;;;;;;43.08;24.42;;;;;;;-145.18;100.00;46660.41;6242062;23;20306;-72
2023/01/29 07:00:43;;;;;;;41.33;24.03;;;;;;;-145.18;100.00;46660.41;6242140;23;20004;-72
2023/01/29 07:03:09;;;;;;;39.10;22.93;;;;;;;-145.18;100.00;46660.41;6241728;23;20023;-72
2023/01/29 07:05:35;;;;;;;40.20;23.53;;;;;;;-145.18;100.00;46660.41;6241066;23;20004;-72
2023/01/29 07:08:01;;;;;;;38.27;23.40;;;;;;;-145.18;100.00;46660.41;6241777;23;20287;-72
2023/01/29 07:10:26;;;;;;;44.77;24.17;;;;;;;-145.18;100.00;46660.41;6233450;23;20004;-72
2023/01/29 07:12:52;;;;;;;41.47;24.43;;;;;;;-145.18;100.00;46656.50;6241488;23;20051;-72
2023/01/29 07:15:20;;;;;;;43.93;24.23;;;;;;;-145.18;100.00;46658.44;6241111;23;20039;-72
2023/01/29 07:18:14;;;;;;;49.47;24.70;;;;;;;-145.18;100.00;46658.44;6241063;23;20008;-72
2023/01/29 07:20:41;;;;;;;39.70;24.15;;;;;;;-145.18;100.00;46658.44;6227364;23;20269;-72
2023/01/29 07:23:10;;;;;;;41.67;23.93;;;;;;;-145.18;100.00;46660.41;6234055;23;20029;-72
2023/01/29 07:25:36;;;;;;;38.15;23.80;;;;;;;-145.18;100.00;46660.41;6241174;23;20232;-72
2023/01/29 07:28:02;;;;;;;42.27;23.90;;;;;;;-145.18;100.00;46660.41;6240865;23;20004;-72
2023/01/29 07:30:28;;;;;;;40.87;23.27;;;;;;;-145.18;100.00;46660.41;6243794;23;20015;-72
2023/01/29 07:32:53;;;;;;;38.90;23.00;;;;;;;-145.18;100.00;46660.41;6242999;23;20233;-72
2023/01/29 07:35:19;;;;;;;42.80;23.43;;;;;;;-145.18;100.00;46660.41;6243454;23;20004;-72
2023/01/29 07:37:48;;;;;;;36.13;22.83;;;;;;;-145.18;100.00;46660.41;6242841;23;20473;-72
2023/01/29 07:40:13;;;;;;;38.00;22.05;;;;;;;-145.18;100.00;46660.41;6216006;23;20405;-72
2023/01/29 07:42:41;;;;;;;37.10;22.80;;;;;;;-145.18;100.00;46660.41;6242587;23;20035;-72
2023/01/29 07:45:07;;;;;;;40.13;21.85;;;;;;;-145.18;100.00;46660.41;6241139;23;20031;-72
2023/01/29 07:47:33;;;;;;;37.77;23.07;;;;;;;-145.18;100.00;46660.41;6239554;23;20099;-72
2023/01/29 07:49:59;;;;;;;41.53;24.37;;;;;;;-145.18;100.00;46658.44;6242976;23;20265;-72
2023/01/29 07:52:24;;;;;;;39.03;23.67;;;;;;;-145.18;100.00;46660.41;6243128;23;20015;-72
2023/01/29 07:54:49;;;;;;;41.63;23.90;;;;;;;-145.18;100.00;46660.41;6241934;23;20015;-72
2023/01/29 07:57:15;;;;;;;42.10;23.30;;;;;;;-145.18;100.00;46660.41;6243401;23;20430;-72
2023/01/29 07:59:40;;;;;;;38.97;23.57;;;;;;;-145.18;100.00;46660.41;6242949;23;20008;-72
2023/01/29 08:02:05;;;;;;;38.67;23.13;;;;;;;-145.18;100.00;46660.41;6241532;23;20055;-72
2023/01/29 08:04:31;;;;;;;37.47;23.67;;;;;;;-145.18;100.00;46660.41;6241104;23;20004;-72
2023/01/29 08:06:56;;;;;;;38.40;24.00;;;;;;;-145.18;100.00;46660.41;6241187;23;20008;-72
2023/01/29 08:09:21;;;;;;;38.97;23.47;;;;;;;-145.18;100.00;46660.41;6241486;23;20020;-72
2023/01/29 08:11:47;;;;;;;38.83;23.63;;;;;;;-145.18;100.00;46660.41;6241512;23;20004;-72
2023/01/29 08:14:12;;;;;;;37.73;22.93;;;;;;;-145.18;100.00;46660.41;6242057;23;20218;-72
2023/01/29 08:16:37;;;;;;;37.57;22.67;;;;;;;-145.18;100.00;46660.41;6215251;23;20008;-72
2023/01/29 08:19:03;;;;;;;35.43;21.33;;;;;;;-145.18;100.00;46660.41;6215881;23;20012;-72
2023/01/29 08:21:28;;;;;;;40.40;22.80;;;;;;;-145.18;100.00;46660.41;6243559;23;20079;-72
2023/01/29 08:23:53;;;;;;;36.83;21.70;;;;;;;-145.18;100.00;46660.41;6242573;23;20016;-72
2023/01/29 08:26:19;;;;;;;36.90;22.47;;;;;;;-145.18;100.00;46660.41;6243210;23;20008;-72
2023/01/29 08:28:44;;;;;;;37.63;22.03;;;;;;;-145.18;100.00;46660.41;6242749;23;20083;-72
2023/01/29 08:31:18;;;;;;;37.20;22.03;;;;;;;-145.18;100.00;46660.41;6243028;23;20081;-72
2023/01/29 08:33:43;;;;;;;37.80;21.92;;;;;;;-145.18;100.00;46656.50;6242871;23;20012;-73
2023/01/29 08:36:09;;;;;;;37.20;22.73;;;;;;;-145.18;100.00;46660.41;6243129;23;20004;-72
2023/01/29 08:38:34;;;;;;;38.83;22.03;;;;;;;-145.18;100.00;46660.41;6242784;23;20008;-72
2023/01/29 08:41:00;;;;;;;38.83;21.30;;;;;;;-145.18;100.00;46660.41;6242441;23;20583;-72
2023/01/29 08:43:25;;;;;;;33.80;20.73;;;;;;;-145.18;100.00;46660.41;6242723;23;20008;-72
2023/01/29 08:45:50;;;;;;;36.70;20.93;;;;;;;-145.18;100.00;46633.06;6243158;23;20345;-72
2023/01/29 08:48:16;;;;;;;38.73;21.10;;;;;;;-145.18;100.00;46631.09;6242492;23;20027;-72
2023/01/29 08:50:41;;;;;;;34.30;20.20;;;;;;;-145.18;100.00;46636.94;6242757;23;20019;-72
2023/01/29 08:53:07;;;;;;;33.13;19.67;;;;;;;-145.18;100.00;46638.91;6216123;23;20398;-72
2023/01/29 08:55:36;;;;;;;36.57;19.70;;;;;;;-145.18;100.00;46654.53;6242929;23;20028;-72
2023/01/29 08:58:06;;;;;;;33.17;19.43;;;;;;;-145.18;100.00;46662.34;6242704;23;20240;-72
2023/01/29 09:00:33;;;;;;;30.93;18.37;;;;;;;-145.18;100.00;46679.94;6190368;23;20639;-72
2023/01/29 09:02:59;;;;;;;30.90;17.60;;;;;;;-145.18;100.00;46674.06;6240786;23;20283;-72
2023/01/29 09:05:26;;;;;;;31.30;18.80;;;;;;;-145.18;100.00;46677.97;6241927;23;20670;-72
2023/01/29 09:07:51;;;;;;;36.20;20.70;;;;;;;-145.18;100.00;46699.47;6241824;23;20242;-72
2023/01/29 09:10:17;;;;;;;29.37;17.00;;;;;;;-145.18;100.00;46707.28;6242054;23;20245;-72
2023/01/29 09:12:42;;;;;;;31.37;19.37;;;;;;;-145.18;100.00;46713.13;6242114;23;20074;-72
2023/01/29 09:15:08;;;;;;;35.07;20.17;;;;;;;-145.18;100.00;46726.81;6241344;23;20008;-72
2023/01/29 09:17:33;;;;;;;36.30;19.47;;;;;;;-145.18;100.00;46720.94;6212978;23;20337;-72
2023/01/29 09:19:59;;;;;;;33.77;20.30;;;;;;;-145.18;100.00;46730.72;6238770;23;20234;-73
2023/01/29 09:22:24;;;;;;;30.47;18.00;;;;;;;-145.18;100.00;46744.38;6212315;23;20421;-72
2023/01/29 09:24:50;;;;;;;35.10;20.17;;;;;;;-145.18;100.00;46734.63;6215428;23;20004;-72
2023/01/29 09:27:15;;;;;;;31.27;18.80;;;;;;;-145.18;100.00;46734.63;6243037;23;20016;-72
2023/01/29 09:29:40;;;;;;;36.20;19.03;;;;;;;-145.18;100.00;46761.97;6242224;23;20426;-72
2023/01/29 09:32:06;;;;;;;36.37;20.57;;;;;;;-145.18;100.00;46756.09;6242938;23;20055;-72
2023/01/29 09:34:31;;;;;;;34.00;19.10;;;;;;;-145.18;100.00;46748.28;6216226;23;20021;-73
2023/01/29 09:36:57;;;;;;;33.17;19.17;;;;;;;-145.18;100.00;46775.66;6242534;23;20018;-72
2023/01/29 09:39:22;;;;;;;36.50;19.70;;;;;;;-145.18;100.00;46791.28;6242793;23;20047;-72
2023/01/29 09:42:09;;;;;;;35.70;19.17;;;;;;;-145.18;100.00;46799.09;6242234;23;20456;-72
2023/01/29 09:44:55;;;;;;;33.70;20.67;;;;;;;-145.18;100.00;46789.31;6242364;23;20018;-72
2023/01/29 09:47:24;;;;;;;35.67;20.80;;;;;;;-145.18;100.00;46803.00;6242917;23;20226;-72
2023/01/29 09:50:04;;;;;;;35.70;19.97;;;;;;;-145.18;100.00;46816.66;6242404;23;20292;-72
2023/01/29 09:52:51;;;;;;;35.70;20.10;;;;;;;-145.18;100.00;46808.84;6215426;23;20226;-72
2023/01/29 09:55:22;;;;;;;33.67;19.53;;;;;;;-145.18;100.00;46804.94;6242561;23;20229;-72
2023/01/29 09:57:58;;;;;;;43.97;21.03;;;;;;;-145.18;100.00;46804.94;6242647;23;20594;-72
2023/01/29 10:00:32;;;;;;;37.15;21.80;;;;;;;-145.18;100.00;46806.91;6242768;23;20253;-72
2023/01/29 10:03:16;;;;;;;39.80;21.73;;;;;;;-145.18;100.00;46824.47;6241786;23;20074;-74
2023/01/29 10:06:03;;;;;;;37.20;22.07;;;;;;;-145.18;100.00;46834.25;6242783;23;20299;-72
2023/01/29 10:08:44;;;;;;;35.30;21.20;;;;;;;-145.18;100.00;46824.47;6242183;23;20552;-72
2023/01/29 10:11:18;;;;;;;40.67;22.03;;;;;;;-145.18;100.00;46816.66;6242414;23;20544;-72
2023/01/29 10:13:55;;;;;;;38.80;22.87;;;;;;;-145.18;100.00;46826.44;6240731;23;20222;-72
2023/01/29 10:16:45;;;;;;;38.70;21.67;;;;;;;-145.18;100.00;46834.25;6241322;23;20265;-72
2023/01/29 10:19:42;;;;;;;36.57;21.37;;;;;;;-145.18;100.00;46844.00;6240493;23;20635;-72
2023/01/29 10:22:35;;;;;;;40.60;22.40;;;;;;;-145.18;100.00;46861.59;6240235;23;20321;-72
2023/01/29 10:25:09;;;;;;;30.07;17.87;;;;;;;-145.18;100.00;46840.09;6240548;23;20214;-72
2023/01/29 10:27:39;;;;;;;37.00;21.40;;;;;;;-145.18;100.00;46863.53;6242222;23;20221;-72
2023/01/29 10:30:39;;;;;;;39.37;21.40;;;;;;;-145.18;100.00;46861.59;6242172;23;20232;-72
2023/01/29 10:33:06;;;;;;;37.13;19.70;;;;;;;-145.18;100.00;46853.78;6241114;23;20234;-73
2023/01/29 10:35:42;;;;;;;35.90;21.60;;;;;;;-145.18;100.00;46879.19;6242550;23;20234;-72
2023/01/29 10:38:25;;;;;;;38.03;21.77;;;;;;;-145.18;100.00;46890.91;6242094;23;20226;-72
2023/01/29 10:41:09;;;;;;;34.73;19.57;;;;;;;-145.18;100.00;46900.66;6242096;23;20249;-72
2023/01/29 10:44:04;;;;;;;31.13;20.10;;;;;;;-145.18;100.00;46914.34;6241948;23;20285;-72
2023/01/29 10:47:00;;;;;;;38.40;21.03;;;;;;;-145.18;100.00;46920.19;6242119;23;20223;-72
2023/01/29 10:49:51;;;;;;;36.40;19.73;;;;;;;-145.18;100.00;46914.34;6241907;23;20214;-72
2023/01/29 10:52:19;;;;;;;34.20;21.50;;;;;;;-145.18;100.00;46914.34;6241418;23;20255;-72
2023/01/29 10:54:50;;;;;;;36.83;22.17;;;;;;;-145.18;100.00;46906.53;6241918;23;20605;-72
2023/01/29 10:57:37;;;;;;;39.37;22.40;;;;;;;-145.18;100.00;46910.44;6241941;23;20272;-72
2023/01/29 11:00:12;;;;;;;38.60;22.17;;;;;;;-145.18;100.00;46918.25;6241820;23;20233;-72
2023/01/29 11:02:47;;;;;;;34.40;21.83;;;;;;;-145.18;100.00;46904.56;6242030;23;20258;-72
2023/01/29 11:05:30;;;;;;;33.50;21.55;;;;;;;-145.18;100.00;46898.72;6243919;23;20384;-72
2023/01/29 11:08:20;;;;;;;33.73;20.53;;;;;;;-145.18;100.00;46910.44;6243745;23;20075;-72
2023/01/29 11:10:48;;;;;;;35.83;21.57;;;;;;;-145.18;100.00;46896.75;6243857;23;20221;-72
2023/01/29 11:13:15;;;;;;;36.83;22.30;;;;;;;-145.18;100.00;46926.06;6243652;23;20232;-72
2023/01/29 11:15:40;;;;;;;34.10;22.67;;;;;;;-145.18;100.00;46892.84;6243651;23;20218;-72
2023/01/29 11:18:12;;;;;;;37.87;21.70;;;;;;;-145.18;100.00;46922.16;6243747;23;20701;-72
2023/01/29 11:20:40;;;;;;;35.53;19.90;;;;;;;-145.18;100.00;46904.56;6215316;23;20336;-72
2023/01/29 11:23:28;;;;;;;40.47;22.70;;;;;;;-145.18;100.00;46885.03;6241707;23;20241;-72
2023/01/29 11:25:56;;;;;;;40.00;23.00;;;;;;;-145.18;100.00;46898.72;6211258;23;20741;-72
2023/01/29 11:29:00;;;;;;;37.37;22.70;;;;;;;-145.18;100.00;46896.75;6241895;23;20225;-73
2023/01/29 11:31:34;;;;;;;37.00;22.57;;;;;;;-145.18;100.00;46902.63;6179933;23;20231;-72
2023/01/29 11:34:05;;;;;;;36.63;21.77;;;;;;;-145.18;100.00;46912.38;6179468;23;20227;-72
2023/01/29 11:36:36;;;;;;;41.57;23.50;;;;;;;-145.18;100.00;46900.66;6215326;23;20265;-72
2023/01/29 11:39:08;;;;;;;40.07;24.07;;;;;;;-145.18;100.00;46892.84;6242975;23;20222;-72
2023/01/29 11:41:43;;;;;;;40.73;22.33;;;;;;;-145.18;100.00;46875.28;6242293;23;20236;-72